createdAt,value
2017-03-10T00:00:57.009Z,20.91
2017-03-10T00:02:07.282Z,20.84
2017-03-10T00:03:16.786Z,20.85
2017-03-10T00:04:26.630Z,20.89
2017-03-10T00:05:36.893Z,20.82
2017-03-10T00:06:46.804Z,20.85
2017-03-10T00:07:57.096Z,20.89
2017-03-10T00:09:06.589Z,20.85
2017-03-10T00:10:17.146Z,20.85
2017-03-10T00:11:27.415Z,20.91
2017-03-10T00:12:37.708Z,20.89
2017-03-10T00:13:47.997Z,20.84
2017-03-10T00:14:58.257Z,20.91
2017-03-10T00:16:09.113Z,20.88
2017-03-10T00:17:19.383Z,20.85
2017-03-10T00:18:29.676Z,20.85
2017-03-10T00:19:40.346Z,20.84
2017-03-10T00:20:50.609Z,20.8
2017-03-10T00:22:01.627Z,20.91
2017-03-10T00:23:10.718Z,20.77
2017-03-10T00:24:20.985Z,20.85
2017-03-10T00:25:31.274Z,20.85
2017-03-10T00:26:41.961Z,20.88
2017-03-10T00:27:53.006Z,20.82
2017-03-10T00:29:02.886Z,20.82
2017-03-10T00:30:13.534Z,20.85
2017-03-10T00:31:23.807Z,20.84
2017-03-10T00:32:34.072Z,20.8
2017-03-10T00:33:44.644Z,20.88
2017-03-10T00:34:54.922Z,20.85
2017-03-10T00:36:05.218Z,20.87
2017-03-10T00:37:15.109Z,20.85
2017-03-10T00:38:25.788Z,20.84
2017-03-10T00:39:36.610Z,20.84
2017-03-10T00:40:46.505Z,20.88
2017-03-10T00:41:57.078Z,20.84
2017-03-10T00:43:07.342Z,20.79
2017-03-10T00:44:17.623Z,20.89
2017-03-10T00:45:28.186Z,20.87
2017-03-10T00:46:38.066Z,20.85
2017-03-10T00:47:48.004Z,20.88
2017-03-10T00:48:57.889Z,20.84
2017-03-10T00:50:08.142Z,20.8
2017-03-10T00:51:18.396Z,20.84
2017-03-10T00:52:28.669Z,20.85
2017-03-10T00:53:38.949Z,20.82
2017-03-10T00:54:49.225Z,20.85
2017-03-10T00:55:59.884Z,20.91
2017-03-10T00:57:10.686Z,20.85
2017-03-10T00:58:21.361Z,20.77
2017-03-10T00:59:31.628Z,20.8
2017-03-10T01:00:42.311Z,20.79
2017-03-10T01:01:52.963Z,20.76
2017-03-10T01:03:03.490Z,20.82
2017-03-10T01:04:13.759Z,20.91
2017-03-10T01:05:24.430Z,20.89
2017-03-10T01:06:34.699Z,20.85
2017-03-10T01:07:45.363Z,20.88
2017-03-10T01:08:56.189Z,20.88
2017-03-10T01:10:05.692Z,20.92
2017-03-10T01:11:16.378Z,20.77
2017-03-10T01:12:27.027Z,20.85
2017-03-10T01:13:37.569Z,20.88
2017-03-10T01:14:47.996Z,20.85
2017-03-10T01:15:57.880Z,20.8
2017-03-10T01:17:08.155Z,20.84
2017-03-10T01:18:18.826Z,20.79
2017-03-10T01:19:29.094Z,20.84
2017-03-10T01:20:39.913Z,20.82
2017-03-10T01:21:50.186Z,20.91
2017-03-10T01:23:00.862Z,20.88
2017-03-10T01:24:11.180Z,20.85
2017-03-10T01:25:21.064Z,20.85
2017-03-10T01:26:31.891Z,20.77
2017-03-10T01:27:42.169Z,20.77
2017-03-10T01:28:52.820Z,20.76
2017-03-10T01:30:03.134Z,20.88
2017-03-10T01:31:13.045Z,20.88
2017-03-10T01:32:24.056Z,20.84
2017-03-10T01:33:34.331Z,20.85
2017-03-10T01:34:44.633Z,20.87
2017-03-10T01:35:54.794Z,20.82
2017-03-10T01:37:04.701Z,20.82
2017-03-10T01:38:15.242Z,20.79
2017-03-10T01:39:25.551Z,20.74
2017-03-10T01:40:36.231Z,20.79
2017-03-10T01:41:46.507Z,20.77
2017-03-10T01:42:56.793Z,20.79
2017-03-10T01:44:07.740Z,20.79
2017-03-10T01:45:18.025Z,20.79
2017-03-10T01:46:28.295Z,20.82
2017-03-10T01:47:38.555Z,20.82
2017-03-10T01:48:48.442Z,20.76
2017-03-10T01:49:59.494Z,20.76
2017-03-10T01:51:10.155Z,20.74
2017-03-10T01:52:20.840Z,20.84
2017-03-10T01:53:31.102Z,20.82
2017-03-10T01:54:41.358Z,20.77
2017-03-10T01:55:51.783Z,20.76
2017-03-10T01:57:02.070Z,20.77
2017-03-10T01:58:12.321Z,20.82
2017-03-10T01:59:23.005Z,20.76
2017-03-10T02:00:33.688Z,20.76
2017-03-10T02:01:43.717Z,20.74
2017-03-10T02:02:53.615Z,20.8
2017-03-10T02:04:03.881Z,20.85
2017-03-10T02:05:14.563Z,20.8
2017-03-10T02:06:24.068Z,20.82
2017-03-10T02:07:34.924Z,20.82
2017-03-10T02:08:44.824Z,20.77
2017-03-10T02:09:55.111Z,20.77
2017-03-10T02:11:05.399Z,20.76
2017-03-10T02:12:15.700Z,20.8
2017-03-10T02:13:26.134Z,20.79
2017-03-10T02:14:36.809Z,20.77
2017-03-10T02:15:47.467Z,20.79
2017-03-10T02:16:57.744Z,20.79
2017-03-10T02:18:08.035Z,20.77
2017-03-10T02:19:18.071Z,20.76
2017-03-10T02:20:27.943Z,20.8
2017-03-10T02:21:38.208Z,20.84
2017-03-10T02:22:48.103Z,20.77
2017-03-10T02:23:58.786Z,20.82
2017-03-10T02:25:09.327Z,20.8
2017-03-10T02:26:18.822Z,20.8
2017-03-10T02:27:29.101Z,20.79
2017-03-10T02:28:39.361Z,20.8
2017-03-10T02:29:49.643Z,20.82
2017-03-10T02:31:00.453Z,20.79
2017-03-10T02:32:11.119Z,20.82
2017-03-10T02:33:20.613Z,20.82
2017-03-10T02:34:30.931Z,20.85
2017-03-10T02:35:41.588Z,20.74
2017-03-10T02:36:51.646Z,20.76
2017-03-10T02:38:02.325Z,20.76
2017-03-10T02:39:12.226Z,20.76
2017-03-10T02:40:22.887Z,20.79
2017-03-10T02:41:33.176Z,20.82
2017-03-10T02:42:43.774Z,20.84
2017-03-10T02:43:54.035Z,20.79
2017-03-10T02:45:04.707Z,20.76
2017-03-10T02:46:15.377Z,20.8
2017-03-10T02:47:25.283Z,20.8
2017-03-10T02:48:36.120Z,20.82
2017-03-10T02:49:45.999Z,20.79
2017-03-10T02:50:56.659Z,20.79
2017-03-10T02:52:07.309Z,20.74
2017-03-10T02:53:17.247Z,20.79
2017-03-10T02:54:27.759Z,20.87
2017-03-10T02:55:38.407Z,20.84
2017-03-10T02:56:49.064Z,20.77
2017-03-10T02:57:58.970Z,20.79
2017-03-10T02:59:09.249Z,20.77
2017-03-10T03:00:19.813Z,20.73
2017-03-10T03:01:29.678Z,20.66
2017-03-10T03:02:39.936Z,20.79
2017-03-10T03:03:49.839Z,20.77
2017-03-10T03:05:00.527Z,20.69
2017-03-10T03:06:10.954Z,20.76
2017-03-10T03:07:21.630Z,20.84
2017-03-10T03:08:32.312Z,20.74
2017-03-10T03:09:42.579Z,20.74
2017-03-10T03:10:53.243Z,20.74
2017-03-10T03:12:04.050Z,20.69
2017-03-10T03:13:14.707Z,20.7
2017-03-10T03:14:25.398Z,20.76
2017-03-10T03:15:34.911Z,20.69
2017-03-10T03:16:44.414Z,20.67
2017-03-10T03:17:55.466Z,20.69
2017-03-10T03:19:05.763Z,20.69
2017-03-10T03:20:16.422Z,20.73
2017-03-10T03:21:26.302Z,20.73
2017-03-10T03:22:36.198Z,20.73
2017-03-10T03:23:46.631Z,20.79
2017-03-10T03:24:56.898Z,20.76
2017-03-10T03:26:06.810Z,20.72
2017-03-10T03:27:17.064Z,20.77
2017-03-10T03:28:27.394Z,20.72
2017-03-10T03:29:38.202Z,20.64
2017-03-10T03:30:48.471Z,20.74
2017-03-10T03:31:58.365Z,20.66
2017-03-10T03:33:07.848Z,20.67
2017-03-10T03:34:18.139Z,20.72
2017-03-10T03:35:28.951Z,20.7
2017-03-10T03:36:39.221Z,20.7
2017-03-10T03:37:49.876Z,20.72
2017-03-10T03:39:00.176Z,20.7
2017-03-10T03:40:10.471Z,20.64
2017-03-10T03:41:21.011Z,20.7
2017-03-10T03:42:30.901Z,20.76
2017-03-10T03:43:41.195Z,20.7
2017-03-10T03:44:51.877Z,20.69
2017-03-10T03:46:02.141Z,20.7
2017-03-10T03:47:12.378Z,20.84
2017-03-10T03:48:23.057Z,20.69
2017-03-10T03:49:33.327Z,20.7
2017-03-10T03:50:43.577Z,20.69
2017-03-10T03:51:54.245Z,20.67
2017-03-10T03:53:05.163Z,20.69
2017-03-10T03:54:15.430Z,20.67
2017-03-10T03:55:25.714Z,20.67
2017-03-10T03:56:36.001Z,20.67
2017-03-10T03:57:46.286Z,20.66
2017-03-10T03:58:56.931Z,20.7
2017-03-10T04:00:06.809Z,20.67
2017-03-10T04:01:17.079Z,20.72
2017-03-10T04:02:27.742Z,20.76
2017-03-10T04:03:37.623Z,20.66
2017-03-10T04:04:48.514Z,20.72
2017-03-10T04:05:59.193Z,20.7
2017-03-10T04:07:09.086Z,20.7
2017-03-10T04:08:19.364Z,20.66
2017-03-10T04:09:29.622Z,20.66
2017-03-10T04:10:40.035Z,20.66
2017-03-10T04:11:50.301Z,20.73
2017-03-10T04:13:00.582Z,20.67
2017-03-10T04:14:10.476Z,20.74
2017-03-10T04:15:20.754Z,20.69
2017-03-10T04:16:31.501Z,20.72
2017-03-10T04:17:41.784Z,20.66
2017-03-10T04:18:52.068Z,20.67
2017-03-10T04:20:02.372Z,20.73
2017-03-10T04:21:12.790Z,20.73
2017-03-10T04:22:23.172Z,20.69
2017-03-10T04:23:33.438Z,20.66
2017-03-10T04:24:43.724Z,20.64
2017-03-10T04:25:53.989Z,20.67
2017-03-10T04:27:04.651Z,20.7
2017-03-10T04:28:15.612Z,20.66
2017-03-10T04:29:25.890Z,20.7
2017-03-10T04:30:35.789Z,20.69
2017-03-10T04:31:46.071Z,20.7
2017-03-10T04:32:56.331Z,20.74
2017-03-10T04:34:07.132Z,20.64
2017-03-10T04:35:17.395Z,20.66
2017-03-10T04:36:27.688Z,20.67
2017-03-10T04:37:37.566Z,20.67
2017-03-10T04:38:47.857Z,20.67
2017-03-10T04:39:58.057Z,20.67
2017-03-10T04:41:08.347Z,20.69
2017-03-10T04:42:19.028Z,20.73
2017-03-10T04:43:29.686Z,20.72
2017-03-10T04:44:39.574Z,20.64
2017-03-10T04:45:50.158Z,20.66
2017-03-10T04:47:00.034Z,20.69
2017-03-10T04:48:10.316Z,20.67
2017-03-10T04:49:20.999Z,20.74
2017-03-10T04:50:31.668Z,20.72
2017-03-10T04:51:42.294Z,20.64
2017-03-10T04:52:52.955Z,20.69
2017-03-10T04:54:03.602Z,20.67
2017-03-10T04:55:13.875Z,20.67
2017-03-10T04:56:24.149Z,20.73
2017-03-10T04:57:34.729Z,20.67
2017-03-10T04:58:45.005Z,20.7
2017-03-10T04:59:55.679Z,20.69
2017-03-10T05:01:06.355Z,20.66
2017-03-10T05:02:17.024Z,20.66
2017-03-10T05:03:28.019Z,20.67
2017-03-10T05:04:37.937Z,20.73
2017-03-10T05:05:48.205Z,20.74
2017-03-10T05:06:58.527Z,20.7
2017-03-10T05:08:08.789Z,20.72
2017-03-10T05:09:18.646Z,20.69
2017-03-10T05:10:28.921Z,20.7
2017-03-10T05:11:39.197Z,20.74
2017-03-10T05:12:49.881Z,20.74
2017-03-10T05:14:00.155Z,20.73
2017-03-10T05:15:10.990Z,20.7
2017-03-10T05:16:21.247Z,20.69
2017-03-10T05:17:31.144Z,20.73
2017-03-10T05:18:41.819Z,20.67
2017-03-10T05:19:52.098Z,20.69
2017-03-10T05:21:02.905Z,20.7
2017-03-10T05:22:13.593Z,20.74
2017-03-10T05:23:23.480Z,20.69
2017-03-10T05:24:33.768Z,20.69
2017-03-10T05:25:44.029Z,20.72
2017-03-10T05:26:54.660Z,20.69
2017-03-10T05:28:05.322Z,20.67
2017-03-10T05:29:15.198Z,20.72
2017-03-10T05:30:25.867Z,20.72
2017-03-10T05:31:36.142Z,20.7
2017-03-10T05:32:46.325Z,20.67
2017-03-10T05:33:57.006Z,20.62
2017-03-10T05:35:07.294Z,20.74
2017-03-10T05:36:17.959Z,20.7
2017-03-10T05:37:28.676Z,20.66
2017-03-10T05:38:39.490Z,20.82
2017-03-10T05:39:49.384Z,20.8
2017-03-10T05:40:59.677Z,20.8
2017-03-10T05:42:09.947Z,20.85
2017-03-10T05:43:20.248Z,20.95
2017-03-10T05:44:29.831Z,20.94
2017-03-10T05:45:40.093Z,21.1
2017-03-10T05:46:51.025Z,21.17
2017-03-10T05:48:01.292Z,21.12
2017-03-10T05:49:11.583Z,21.22
2017-03-10T05:50:22.416Z,21.28
2017-03-10T05:51:33.099Z,21.34
2017-03-10T05:52:43.382Z,21.32
2017-03-10T05:53:53.668Z,21.37
2017-03-10T05:55:04.471Z,21.44
2017-03-10T05:56:14.517Z,21.4
2017-03-10T05:57:25.170Z,21.5
2017-03-10T05:58:35.819Z,21.44
2017-03-10T05:59:46.477Z,21.49
2017-03-10T06:00:56.759Z,21.59
2017-03-10T06:02:07.595Z,21.67
2017-03-10T06:03:17.866Z,21.62
2017-03-10T06:04:28.145Z,21.65
2017-03-10T06:05:38.814Z,21.77
2017-03-10T06:06:49.480Z,21.74
2017-03-10T06:08:00.230Z,21.71
2017-03-10T06:09:10.099Z,21.75
2017-03-10T06:10:20.755Z,21.74
2017-03-10T06:11:31.019Z,21.88
2017-03-10T06:12:41.685Z,21.91
2017-03-10T06:13:51.370Z,22
2017-03-10T06:15:02.082Z,21.94
2017-03-10T06:16:12.695Z,21.96
2017-03-10T06:17:22.954Z,21.99
2017-03-10T06:18:33.232Z,22.06
2017-03-10T06:19:43.789Z,22.12
2017-03-10T06:20:54.454Z,22.18
2017-03-10T06:22:04.763Z,22.24
2017-03-10T06:23:14.638Z,22.24
2017-03-10T06:24:24.929Z,22.21
2017-03-10T06:25:35.757Z,22.31
2017-03-10T06:26:45.667Z,22.24
2017-03-10T06:27:55.962Z,22.3
2017-03-10T06:29:06.627Z,22.36
2017-03-10T06:30:16.530Z,22.36
2017-03-10T06:31:27.559Z,22.42
2017-03-10T06:32:37.829Z,22.37
2017-03-10T06:33:48.526Z,22.4
2017-03-10T06:34:58.387Z,22.51
2017-03-10T06:36:08.261Z,22.58
2017-03-10T06:37:19.241Z,22.52
2017-03-10T06:38:29.121Z,22.54
2017-03-10T06:39:39.808Z,22.64
2017-03-10T06:40:50.066Z,22.58
2017-03-10T06:42:00.389Z,22.57
2017-03-10T06:43:11.305Z,22.72
2017-03-10T06:44:21.217Z,22.7
2017-03-10T06:45:31.492Z,22.73
2017-03-10T06:46:41.756Z,22.75
2017-03-10T06:47:52.060Z,22.79
2017-03-10T06:49:03.009Z,22.8
2017-03-10T06:50:12.884Z,22.86
2017-03-10T06:51:22.798Z,22.86
2017-03-10T06:52:33.491Z,22.95
2017-03-10T06:53:43.785Z,22.92
2017-03-10T06:54:54.220Z,23.01
2017-03-10T06:56:04.108Z,23
2017-03-10T06:57:14.806Z,23.02
2017-03-10T06:58:24.706Z,23.07
2017-03-10T06:59:35.356Z,23
2017-03-10T07:00:45.751Z,23.04
2017-03-10T07:01:56.045Z,23.02
2017-03-10T07:03:06.397Z,23.01
2017-03-10T07:04:16.666Z,23.01
2017-03-10T07:05:27.329Z,23.01
2017-03-10T07:06:37.951Z,22.98
2017-03-10T07:07:48.224Z,22.97
2017-03-10T07:08:58.489Z,22.9
2017-03-10T07:10:08.746Z,22.94
2017-03-10T07:11:18.659Z,22.9
2017-03-10T07:12:29.293Z,22.86
2017-03-10T07:13:39.963Z,22.88
2017-03-10T07:14:50.238Z,22.85
2017-03-10T07:16:00.518Z,22.85
2017-03-10T07:17:10.807Z,22.79
2017-03-10T07:18:21.444Z,22.8
2017-03-10T07:19:31.364Z,22.75
2017-03-10T07:20:41.261Z,22.77
2017-03-10T07:21:51.956Z,22.76
2017-03-10T07:23:01.867Z,22.77
2017-03-10T07:24:12.049Z,22.68
2017-03-10T07:25:22.718Z,22.76
2017-03-10T07:26:32.657Z,22.68
2017-03-10T07:27:42.555Z,22.73
2017-03-10T07:28:52.842Z,22.61
2017-03-10T07:30:03.822Z,22.64
2017-03-10T07:31:14.116Z,22.61
2017-03-10T07:32:24.378Z,22.6
2017-03-10T07:33:34.645Z,22.67
2017-03-10T07:34:45.309Z,22.55
2017-03-10T07:35:55.858Z,22.6
2017-03-10T07:37:06.135Z,22.52
2017-03-10T07:38:16.423Z,22.54
2017-03-10T07:39:25.942Z,22.55
2017-03-10T07:40:35.840Z,22.58
2017-03-10T07:41:45.872Z,22.6
2017-03-10T07:42:56.580Z,22.55
2017-03-10T07:44:06.869Z,22.49
2017-03-10T07:45:17.544Z,22.45
2017-03-10T07:46:28.226Z,22.39
2017-03-10T07:47:39.037Z,22.45
2017-03-10T07:48:49.339Z,22.47
2017-03-10T07:49:59.998Z,22.45
2017-03-10T07:51:09.917Z,22.39
2017-03-10T07:52:20.192Z,22.39
2017-03-10T07:53:30.649Z,22.33
2017-03-10T07:54:41.343Z,22.33
2017-03-10T07:55:51.628Z,22.28
2017-03-10T07:57:02.333Z,22.28
2017-03-10T07:58:12.206Z,22.28
2017-03-10T07:59:23.038Z,22.28
2017-03-10T08:00:33.723Z,22.31
2017-03-10T08:01:44.011Z,22.27
2017-03-10T08:02:54.675Z,22.28
2017-03-10T08:04:04.963Z,22.28
2017-03-10T08:05:15.548Z,22.21
2017-03-10T08:06:25.838Z,22.21
2017-03-10T08:07:36.523Z,22.22
2017-03-10T08:08:47.191Z,22.24
2017-03-10T08:09:57.461Z,22.27
2017-03-10T08:11:07.726Z,22.27
2017-03-10T08:12:18.014Z,22.24
2017-03-10T08:13:28.281Z,22.3
2017-03-10T08:14:38.460Z,22.25
2017-03-10T08:15:49.142Z,22.28
2017-03-10T08:17:00.064Z,22.27
2017-03-10T08:18:10.751Z,22.21
2017-03-10T08:19:21.038Z,22.28
2017-03-10T08:20:30.932Z,22.28
2017-03-10T08:21:41.607Z,22.15
2017-03-10T08:22:52.128Z,22.2
2017-03-10T08:24:02.787Z,22.18
2017-03-10T08:25:13.504Z,22.17
2017-03-10T08:26:23.423Z,22.2
2017-03-10T08:27:34.094Z,22.24
2017-03-10T08:28:44.675Z,22.18
2017-03-10T08:29:55.617Z,22.21
2017-03-10T08:31:06.331Z,22.2
2017-03-10T08:32:16.223Z,22.21
2017-03-10T08:33:26.883Z,22.21
2017-03-10T08:34:37.037Z,22.18
2017-03-10T08:35:46.913Z,22.18
2017-03-10T08:36:57.211Z,22.2
2017-03-10T08:38:07.097Z,22.22
2017-03-10T08:39:17.767Z,22.17
2017-03-10T08:40:27.815Z,22.17
2017-03-10T08:41:36.949Z,22.27
2017-03-10T08:42:47.229Z,22.14
2017-03-10T08:43:57.883Z,22.22
2017-03-10T08:45:08.545Z,22.21
2017-03-10T08:46:18.233Z,22.15
2017-03-10T08:47:28.926Z,22.22
2017-03-10T08:48:39.200Z,22.22
2017-03-10T08:49:49.475Z,22.18
2017-03-10T08:51:00.161Z,22.21
2017-03-10T08:52:10.969Z,22.17
2017-03-10T08:53:21.285Z,22.21
2017-03-10T08:54:31.564Z,22.24
2017-03-10T08:55:42.235Z,22.2
2017-03-10T08:56:52.910Z,22.24
2017-03-10T08:58:02.952Z,22.18
2017-03-10T08:59:12.905Z,22.18
2017-03-10T09:00:23.568Z,22.14
2017-03-10T09:01:33.466Z,22.15
2017-03-10T09:02:43.752Z,22.18
2017-03-10T09:03:54.748Z,22.24
2017-03-10T09:05:05.423Z,22.17
2017-03-10T09:06:16.090Z,22.14
2017-03-10T09:07:26.379Z,22.27
2017-03-10T09:08:37.053Z,22.14
2017-03-10T09:09:47.708Z,22.24
2017-03-10T09:10:57.632Z,22.12
2017-03-10T09:12:07.928Z,22.21
2017-03-10T09:13:17.436Z,22.15
2017-03-10T09:14:28.114Z,22.17
2017-03-10T09:15:38.555Z,22.06
2017-03-10T09:16:49.211Z,22.03
2017-03-10T09:17:59.493Z,22.06
2017-03-10T09:19:09.806Z,22.02
2017-03-10T09:20:20.496Z,22.15
2017-03-10T09:21:31.462Z,22.07
2017-03-10T09:22:41.745Z,22.05
2017-03-10T09:23:52.440Z,22.02
2017-03-10T09:25:02.742Z,22.06
2017-03-10T09:26:13.405Z,22.12
2017-03-10T09:27:23.217Z,22.07
2017-03-10T09:28:33.122Z,22.09
2017-03-10T09:29:43.802Z,21.99
2017-03-10T09:30:54.458Z,22.02
2017-03-10T09:32:04.333Z,21.99
2017-03-10T09:33:15.271Z,21.98
2017-03-10T09:34:25.548Z,22
2017-03-10T09:35:35.843Z,22.05
2017-03-10T09:36:45.724Z,21.98
2017-03-10T09:37:56.002Z,21.99
2017-03-10T09:39:06.827Z,22.03
2017-03-10T09:40:17.535Z,21.88
2017-03-10T09:41:27.827Z,21.99
2017-03-10T09:42:38.514Z,21.98
2017-03-10T09:43:48.799Z,22.03
2017-03-10T09:44:59.228Z,21.92
2017-03-10T09:46:08.725Z,22.06
2017-03-10T09:47:18.621Z,21.99
2017-03-10T09:48:29.323Z,21.99
2017-03-10T09:49:39.977Z,21.96
2017-03-10T09:50:50.933Z,21.99
2017-03-10T09:52:00.860Z,22.02
2017-03-10T09:53:11.167Z,21.98
2017-03-10T09:54:21.857Z,21.98
2017-03-10T09:55:32.154Z,22.12
2017-03-10T09:56:42.574Z,22.06
2017-03-10T09:57:53.248Z,22.06
2017-03-10T09:59:03.919Z,22.07
2017-03-10T10:00:14.609Z,22.1
2017-03-10T10:01:24.487Z,22.03
2017-03-10T10:02:34.522Z,21.96
2017-03-10T10:03:44.408Z,22.02
2017-03-10T10:04:53.501Z,21.96
2017-03-10T10:06:03.771Z,21.96
2017-03-10T10:07:14.047Z,22.09
2017-03-10T10:08:24.591Z,22.03
2017-03-10T10:09:34.118Z,22
2017-03-10T10:10:44.005Z,22.02
2017-03-10T10:11:54.681Z,21.96
2017-03-10T10:13:04.582Z,21.98
2017-03-10T10:14:15.175Z,21.94
2017-03-10T10:15:25.457Z,22
2017-03-10T10:16:35.354Z,22.03
2017-03-10T10:17:46.015Z,22.02
2017-03-10T10:18:56.283Z,21.98
2017-03-10T10:20:06.715Z,22.02
2017-03-10T10:21:16.623Z,22.1
2017-03-10T10:22:27.337Z,22.05
2017-03-10T10:23:37.247Z,22.02
2017-03-10T10:24:47.566Z,22.02
2017-03-10T10:25:58.533Z,22.03
2017-03-10T10:27:08.821Z,22
2017-03-10T10:28:19.101Z,22.07
2017-03-10T10:29:29.767Z,22.06
2017-03-10T10:30:40.471Z,22
2017-03-10T10:31:50.709Z,22.09
2017-03-10T10:33:00.610Z,22
2017-03-10T10:34:11.288Z,22.09
2017-03-10T10:35:21.972Z,22.06
2017-03-10T10:36:32.289Z,22.02
2017-03-10T10:37:43.232Z,21.99
2017-03-10T10:38:53.913Z,22
2017-03-10T10:40:04.207Z,22
2017-03-10T10:41:14.494Z,22.05
2017-03-10T10:42:24.785Z,21.96
2017-03-10T10:43:34.980Z,21.98
2017-03-10T10:44:45.275Z,21.99
2017-03-10T10:45:55.552Z,22.03
2017-03-10T10:47:06.234Z,21.9
2017-03-10T10:48:16.509Z,22
2017-03-10T10:49:27.526Z,22
2017-03-10T10:50:37.839Z,21.9
2017-03-10T10:51:48.501Z,21.99
2017-03-10T10:52:58.802Z,21.98
2017-03-10T10:54:08.303Z,22
2017-03-10T10:55:18.688Z,21.91
2017-03-10T10:56:28.977Z,21.94
2017-03-10T10:57:39.274Z,21.9
2017-03-10T10:58:49.185Z,21.84
2017-03-10T10:59:59.868Z,21.9
2017-03-10T11:01:09.925Z,21.91
2017-03-10T11:02:20.200Z,21.96
2017-03-10T11:03:30.116Z,21.91
2017-03-10T11:04:40.461Z,21.91
2017-03-10T11:05:51.125Z,21.8
2017-03-10T11:07:01.268Z,21.9
2017-03-10T11:08:11.560Z,21.74
2017-03-10T11:09:21.833Z,21.82
2017-03-10T11:10:31.737Z,21.79
2017-03-10T11:11:42.462Z,21.9
2017-03-10T11:12:52.907Z,21.84
2017-03-10T11:14:02.462Z,21.82
2017-03-10T11:15:13.136Z,21.8
2017-03-10T11:16:23.847Z,21.71
2017-03-10T11:17:34.159Z,21.83
2017-03-10T11:18:44.606Z,21.86
2017-03-10T11:19:55.219Z,21.79
2017-03-10T11:21:05.510Z,21.82
2017-03-10T11:22:15.805Z,21.82
2017-03-10T11:23:26.506Z,21.74
2017-03-10T11:24:36.943Z,21.77
2017-03-10T11:25:47.224Z,21.71
2017-03-10T11:26:57.898Z,21.74
2017-03-10T11:28:07.787Z,21.74
2017-03-10T11:29:18.076Z,21.75
2017-03-10T11:30:28.541Z,21.72
2017-03-10T11:31:38.832Z,21.74
2017-03-10T11:32:49.124Z,21.77
2017-03-10T11:33:59.786Z,21.74
2017-03-10T11:35:09.697Z,21.68
2017-03-10T11:36:19.304Z,21.72
2017-03-10T11:37:29.964Z,21.65
2017-03-10T11:38:40.371Z,21.69
2017-03-10T11:39:51.055Z,21.64
2017-03-10T11:41:00.952Z,21.68
2017-03-10T11:42:11.874Z,21.65
2017-03-10T11:43:22.579Z,21.65
2017-03-10T11:44:32.460Z,21.71
2017-03-10T11:45:43.149Z,21.65
2017-03-10T11:46:53.412Z,21.65
2017-03-10T11:48:04.314Z,21.64
2017-03-10T11:49:14.991Z,21.59
2017-03-10T11:50:25.665Z,21.64
2017-03-10T11:51:35.578Z,21.61
2017-03-10T11:52:46.248Z,21.68
2017-03-10T11:53:56.873Z,21.64
2017-03-10T11:55:07.581Z,21.64
2017-03-10T11:56:17.468Z,21.61
2017-03-10T11:57:28.125Z,21.62
2017-03-10T11:58:38.043Z,21.58
2017-03-10T11:59:48.897Z,21.61
2017-03-10T12:00:59.209Z,21.64
2017-03-10T12:02:09.872Z,21.59
2017-03-10T12:03:20.176Z,21.62
2017-03-10T12:04:29.699Z,21.59
2017-03-10T12:05:39.951Z,21.64
2017-03-10T12:06:49.845Z,21.59
2017-03-10T12:07:59.730Z,21.61
2017-03-10T12:09:09.631Z,21.59
2017-03-10T12:10:19.918Z,21.53
2017-03-10T12:11:29.535Z,21.53
2017-03-10T12:12:39.415Z,21.65
2017-03-10T12:13:50.105Z,21.64
2017-03-10T12:15:00.388Z,21.61
2017-03-10T12:16:11.068Z,21.56
2017-03-10T12:17:22.014Z,21.5
2017-03-10T12:18:32.855Z,21.59
2017-03-10T12:19:43.180Z,21.56
2017-03-10T12:20:53.855Z,21.58
2017-03-10T12:22:04.536Z,21.56
2017-03-10T12:23:15.396Z,21.56
2017-03-10T12:24:25.714Z,21.54
2017-03-10T12:25:36.385Z,21.62
2017-03-10T12:26:46.305Z,21.54
2017-03-10T12:27:56.189Z,21.52
2017-03-10T12:29:06.793Z,21.53
2017-03-10T12:30:16.695Z,21.54
2017-03-10T12:31:26.614Z,21.52
2017-03-10T12:32:36.930Z,21.58
2017-03-10T12:33:47.231Z,21.52
2017-03-10T12:34:58.002Z,21.54
2017-03-10T12:36:08.692Z,21.59
2017-03-10T12:37:18.200Z,21.56
2017-03-10T12:38:28.895Z,21.58
2017-03-10T12:39:38.789Z,21.56
2017-03-10T12:40:49.423Z,21.54
2017-03-10T12:41:59.719Z,21.61
2017-03-10T12:43:10.436Z,21.58
2017-03-10T12:44:20.734Z,21.52
2017-03-10T12:45:31.418Z,21.58
2017-03-10T12:46:41.838Z,21.52
2017-03-10T12:47:52.119Z,21.5
2017-03-10T12:49:02.393Z,21.54
2017-03-10T12:50:13.062Z,21.56
2017-03-10T12:51:23.364Z,21.64
2017-03-10T12:52:34.206Z,21.56
2017-03-10T12:53:44.112Z,21.52
2017-03-10T12:54:54.785Z,21.54
2017-03-10T12:56:05.484Z,21.52
2017-03-10T12:57:16.143Z,21.54
2017-03-10T12:58:26.967Z,21.54
2017-03-10T12:59:37.622Z,21.54
2017-03-10T13:00:48.338Z,21.53
2017-03-10T13:01:58.988Z,21.58
2017-03-10T13:03:09.289Z,21.54
2017-03-10T13:04:20.253Z,21.52
2017-03-10T13:05:30.928Z,21.59
2017-03-10T13:06:41.235Z,21.53
2017-03-10T13:07:51.926Z,21.58
2017-03-10T13:09:02.626Z,21.54
2017-03-10T13:10:13.386Z,21.53
2017-03-10T13:11:24.064Z,21.53
2017-03-10T13:12:33.953Z,21.53
2017-03-10T13:13:43.458Z,21.53
2017-03-10T13:14:53.729Z,21.56
2017-03-10T13:16:04.698Z,21.54
2017-03-10T13:17:14.590Z,21.54
2017-03-10T13:18:24.865Z,21.53
2017-03-10T13:19:35.523Z,21.56
2017-03-10T13:20:45.805Z,21.56
2017-03-10T13:21:55.975Z,21.56
2017-03-10T13:23:06.265Z,21.52
2017-03-10T13:24:15.784Z,21.59
2017-03-10T13:25:26.073Z,21.56
2017-03-10T13:26:36.750Z,21.54
2017-03-10T13:27:47.159Z,21.52
2017-03-10T13:28:57.856Z,21.58
2017-03-10T13:30:07.792Z,21.54
2017-03-10T13:31:17.290Z,21.59
2017-03-10T13:32:28.245Z,21.54
2017-03-10T13:33:38.832Z,21.54
2017-03-10T13:34:49.096Z,21.56
2017-03-10T13:35:59.787Z,21.58
2017-03-10T13:37:10.454Z,21.56
2017-03-10T13:38:20.732Z,21.54
2017-03-10T13:39:31.554Z,21.56
2017-03-10T13:40:41.463Z,21.53
2017-03-10T13:41:51.734Z,21.52
2017-03-10T13:43:02.029Z,21.58
2017-03-10T13:44:11.910Z,21.56
2017-03-10T13:45:22.704Z,21.53
2017-03-10T13:46:32.975Z,21.59
2017-03-10T13:47:43.638Z,21.59
2017-03-10T13:48:53.926Z,21.54
2017-03-10T13:50:04.207Z,21.56
2017-03-10T13:51:14.636Z,21.54
2017-03-10T13:52:24.518Z,21.5
2017-03-10T13:53:34.850Z,21.52
2017-03-10T13:54:44.373Z,21.53
2017-03-10T13:55:55.048Z,21.56
2017-03-10T13:57:05.878Z,21.49
2017-03-10T13:58:15.763Z,21.59
2017-03-10T13:59:26.432Z,21.52
2017-03-10T14:00:36.688Z,21.52
2017-03-10T14:01:46.960Z,21.53
2017-03-10T14:02:57.397Z,21.59
2017-03-10T14:04:08.054Z,21.61
2017-03-10T14:05:17.555Z,21.53
2017-03-10T14:06:28.219Z,21.56
2017-03-10T14:07:38.101Z,21.54
2017-03-10T14:08:48.520Z,21.59
2017-03-10T14:09:59.190Z,21.59
2017-03-10T14:11:09.485Z,21.54
2017-03-10T14:12:19.760Z,21.61
2017-03-10T14:13:29.640Z,21.61
2017-03-10T14:14:40.563Z,21.56
2017-03-10T14:15:50.454Z,21.59
2017-03-10T14:17:00.746Z,21.59
2017-03-10T14:18:11.413Z,21.64
2017-03-10T14:19:21.674Z,21.61
2017-03-10T14:20:32.240Z,21.61
2017-03-10T14:21:42.900Z,21.64
2017-03-10T14:22:53.185Z,21.65
2017-03-10T14:24:03.464Z,21.65
2017-03-10T14:25:13.749Z,21.67
2017-03-10T14:26:24.275Z,21.65
2017-03-10T14:27:34.937Z,21.59
2017-03-10T14:28:45.222Z,21.69
2017-03-10T14:29:55.899Z,21.64
2017-03-10T14:31:05.442Z,21.71
2017-03-10T14:32:16.034Z,21.67
2017-03-10T14:33:26.690Z,21.64
2017-03-10T14:34:36.961Z,21.61
2017-03-10T14:35:47.222Z,21.65
2017-03-10T14:36:57.506Z,21.62
2017-03-10T14:38:07.753Z,21.65
2017-03-10T14:39:18.432Z,21.58
2017-03-10T14:40:28.321Z,21.65
2017-03-10T14:41:38.609Z,21.69
2017-03-10T14:42:48.904Z,21.69
2017-03-10T14:43:59.508Z,21.64
2017-03-10T14:45:09.420Z,21.64
2017-03-10T14:46:20.125Z,21.65
2017-03-10T14:47:30.420Z,21.62
2017-03-10T14:48:41.084Z,21.62
2017-03-10T14:49:52.077Z,21.67
2017-03-10T14:51:02.739Z,21.62
2017-03-10T14:52:12.994Z,21.64
2017-03-10T14:53:23.289Z,21.67
2017-03-10T14:54:33.974Z,21.65
2017-03-10T14:55:44.789Z,21.65
2017-03-10T14:56:55.104Z,21.68
2017-03-10T14:58:05.020Z,21.67
2017-03-10T14:59:15.666Z,21.65
2017-03-10T15:00:26.324Z,21.67
2017-03-10T15:01:36.941Z,21.67
2017-03-10T15:02:47.232Z,21.67
2017-03-10T15:03:57.915Z,21.65
2017-03-10T15:05:08.193Z,21.58
2017-03-10T15:06:18.487Z,21.65
2017-03-10T15:07:28.649Z,21.65
2017-03-10T15:08:39.322Z,21.64
2017-03-10T15:09:49.263Z,21.67
2017-03-10T15:10:59.549Z,21.64